Glen Burnie, Maryland
Current Conditions -  °F | °C
As of 8:54 AM on Friday 28 Nov 2014 (Local Time) from KBWI Reporting Station
Scattered Clouds Scattered Clouds  
Wind Chill: 26°   Ceiling: Unl
Heat Index: 36°   Visibility: 10mi
Dew Point: 22°   Wind: 16mph
Humidity: 57%   Direction: 290°WNW
Pressure: 30.28"   Gusts: 21mph
Location:  39.16°N, 76.62°W
Report Text: KBWI 281354Z 29014G18KT 10SM FEW043 SCT100 02/M06 A3028 RMK AO2 SLP256 VIRGA SW-W T00221056
Loading
Personal Weather Stations






























Interactive Weather Map New forecast layout! Learn more

10-Day Weather Forecast

Advertisements
Track Severe Weather on mobile